Watertown, CT

6:43 AM EDT on August 29, 2016 (GMT -0400)
High above beautiful downtown | | Change Station

Elev 534 ft 41.58 °N, 73.10 °W | Updated 34 seconds ago

Overcast
Overcast
70.1 °F
Feels Like 70.1 °F
N
0.0
Wind Variable Wind from WSW
Gusts 0.0 mph

Today
High -- | Low -- °F
--% Chance of Precip.
Yesterday
High -- | Low -- °F
Precip. -- in
Pressure 30.09 in
Visibility 10.0 miles
Clouds Overcast 9000 ft
Dew Point 68 °F
Humidity 93%
Rainfall 0.00 in
Snow Depth Not available.
6:15 AM 7:29 PM
Waning Crescent, 9% visible
METAR KMMK 290953Z AUTO 00000KT 10SM OVC090 22/19 A3010 RMK AO2 SLP189 T02220189 TSNO
Pressure 30.09 in
Visibility 10.0 miles
Clouds Overcast 9000 ft
Dew Point 68 °F
Humidity 93%
Rainfall 0.00 in
Snow Depth Not available.
6:15 AM 7:29 PM
Waning Crescent, 9% visible
METAR KMMK 290953Z AUTO 00000KT 10SM OVC090 22/19 A3010 RMK AO2 SLP189 T02220189 TSNO

10-Day Weather Forecast

Almanac

Astronomy

Aug. 29, 2016 Rise Set
Actual Time
Civil Twilight
Nautical Twilight
Astronomical Twilight
Moon
Length of Visible Light
Length of Day
Tomorrow will be .
, % of the Moon is Illuminated

Today's Extremes

State Highs State Lows

Community

WunderPhotos

Upload Photos

1,935,802 photos uploaded!

WunderBlog® & News

Nearby

Air Quality

  Air Quality AQ Index Pollutant
Not available.

Snow Depth

Station Depth Elevation

Earthquake Activity

City Distance Mag. Time & Date
Minimum magnitude displayed is 2.5.

Coastal Water Temperatures

Place Temperature

Stations

Nearby Weather Stations

Station Location Temp. Windchill Dew Point Humidity Wind Precip. Elev Updated Type
                   

Watches & Warnings

There are currently no watches in effect.